TimeCDT,TemperatureF,Dew PointF,Humidity,Sea Level PressureIn,VisibilityMPH,Wind Direction,Wind SpeedMPH,Gust SpeedMPH,PrecipitationIn,Events,Conditions,WindDirDegrees,DateUTC
12:14 AM,68.9,42.4,38,29.65,10.0,WSW,6.9,-,N/A,,Clear,250,2013-05-14 05:14:00
12:35 AM,68.4,41.0,37,29.66,10.0,West,6.9,-,N/A,,Clear,270,2013-05-14 05:35:00
12:54 AM,67.5,40.1,37,29.67,10.0,West,9.2,-,N/A,,Clear,280,2013-05-14 05:54:00
1:15 AM,67.8,39.4,35,29.67,10.0,West,6.9,-,N/A,,Clear,260,2013-05-14 06:15:00
1:35 AM,66.2,39.6,38,29.67,10.0,West,6.9,-,N/A,,Clear,270,2013-05-14 06:35:00
1:54 AM,64.0,39.4,40,29.67,10.0,West,6.9,-,N/A,,Clear,270,2013-05-14 06:54:00
2:15 AM,59.2,40.1,49,29.67,10.0,WSW,5.8,-,N/A,,Clear,250,2013-05-14 07:15:00
2:34 AM,60.1,39.6,47,29.68,10.0,WSW,4.6,-,N/A,,Clear,250,2013-05-14 07:34:00
2:55 AM,59.7,39.7,48,29.68,10.0,West,4.6,-,N/A,,Clear,260,2013-05-14 07:55:00
3:15 AM,59.9,39.4,47,29.68,10.0,West,4.6,-,N/A,,Clear,260,2013-05-14 08:15:00
3:34 AM,59.5,39.4,47,29.67,10.0,Calm,Calm,-,N/A,,Clear,0,2013-05-14 08:34:00
3:55 AM,53.6,38.7,57,29.68,10.0,WSW,3.5,-,N/A,,Clear,240,2013-05-14 08:55:00
4:14 AM,54.5,39.6,57,29.67,10.0,Calm,Calm,-,N/A,,Clear,0,2013-05-14 09:14:00
4:35 AM,52.7,38.7,59,29.67,10.0,Calm,Calm,-,N/A,,Clear,0,2013-05-14 09:35:00
4:54 AM,54.0,38.8,57,29.66,10.0,Calm,Calm,-,N/A,,Clear,0,2013-05-14 09:54:00
5:15 AM,53.1,39.2,59,29.66,10.0,Calm,Calm,-,N/A,,Clear,0,2013-05-14 10:15:00
5:34 AM,50.5,37.8,62,29.67,10.0,Calm,Calm,-,N/A,,Clear,0,2013-05-14 10:34:00
5:54 AM,53.2,39.2,59,29.67,10.0,South,6.9,-,N/A,,Clear,190,2013-05-14 10:54:00
6:15 AM,54.9,39.6,56,29.66,10.0,SSE,4.6,-,N/A,,Clear,150,2013-05-14 11:15:00
6:34 AM,52.5,40.1,63,29.65,10.0,SE,4.6,-,N/A,,Clear,140,2013-05-14 11:34:00
6:55 AM,54.5,41.9,62,29.66,10.0,Calm,Calm,-,N/A,,Clear,0,2013-05-14 11:55:00
7:15 AM,59.2,41.9,53,29.66,10.0,South,4.6,-,N/A,,Clear,180,2013-05-14 12:15:00
7:35 AM,60.8,43.5,53,29.67,10.0,Calm,Calm,-,N/A,,Clear,0,2013-05-14 12:35:00
7:55 AM,64.2,43.5,47,29.66,10.0,South,4.6,-,N/A,,Clear,190,2013-05-14 12:55:00
8:15 AM,68.4,45.0,43,29.65,10.0,South,4.6,-,N/A,,Clear,170,2013-05-14 13:15:00
8:35 AM,71.8,43.3,36,29.64,10.0,South,5.8,-,N/A,,Clear,170,2013-05-14 13:35:00
8:54 AM,75.6,41.2,29,29.63,10.0,South,11.5,-,N/A,,Clear,190,2013-05-14 13:54:00
9:15 AM,75.0,40.6,29,29.63,10.0,South,9.2,-,N/A,,Clear,180,2013-05-14 14:15:00
9:34 AM,75.2,41.0,29,29.64,10.0,SSW,4.6,-,N/A,,Clear,200,2013-05-14 14:34:00
9:55 AM,74.5,44.6,34,29.66,10.0,North,3.5,-,N/A,,Scattered Clouds,350,2013-05-14 14:55:00
10:14 AM,72.9,44.6,36,29.66,10.0,North,3.5,-,N/A,,Mostly Cloudy,10,2013-05-14 15:14:00
10:34 AM,74.7,47.5,38,29.62,10.0,East,9.2,-,N/A,Rain,Light Rain,100,2013-05-14 15:34:00
10:55 AM,79.0,40.3,25,29.64,10.0,ESE,8.1,-,N/A,,Clear,110,2013-05-14 15:55:00
11:14 AM,77.2,41.5,28,29.60,10.0,East,13.8,19.6,N/A,,Scattered Clouds,90,2013-05-14 16:14:00
11:35 AM,78.3,41.9,27,29.58,10.0,East,15.0,19.6,N/A,,Clear,90,2013-05-14 16:35:00
11:54 AM,79.7,42.8,27,29.57,10.0,ESE,17.3,-,N/A,,Clear,110,2013-05-14 16:54:00
12:15 PM,84.0,42.8,23,29.53,10.0,ESE,18.4,-,N/A,,Clear,110,2013-05-14 17:15:00
12:35 PM,87.4,39.2,18,29.51,10.0,SE,21.9,31.1,N/A,,Clear,130,2013-05-14 17:35:00
12:54 PM,89.2,39.0,17,29.50,10.0,SE,20.7,32.2,N/A,,Clear,140,2013-05-14 17:54:00
1:12 PM,89.6,39.7,17,29.50,10.0,SSE,18.4,26.5,N/A,,Clear,150,2013-05-14 18:12:00
1:35 PM,94.5,38.1,14,29.49,10.0,SSE,16.1,21.9,N/A,,Clear,150,2013-05-14 18:35:00
1:55 PM,95.4,38.7,14,29.47,10.0,SSE,12.7,24.2,N/A,,Clear,150,2013-05-14 18:55:00
2:13 PM,96.6,35.1,12,29.48,10.0,WSW,13.8,23.0,N/A,,Clear,250,2013-05-14 19:13:00
2:28 PM,97.5,34.0,11,29.47,10.0,West,16.1,24.2,N/A,,Clear,260,2013-05-14 19:28:00
2:55 PM,97.9,32.5,10,29.48,10.0,West,26.5,29.9,N/A,,Clear,270,2013-05-14 19:55:00
3:12 PM,96.8,32.9,11,29.48,10.0,WNW,21.9,29.9,N/A,,Clear,290,2013-05-14 20:12:00
3:25 PM,97.2,32.9,10,29.48,10.0,West,25.3,32.2,N/A,,Clear,280,2013-05-14 20:25:00
3:55 PM,96.4,31.6,10,29.49,10.0,WNW,25.3,34.5,N/A,,Clear,290,2013-05-14 20:55:00
4:15 PM,96.4,26.6,8,29.50,10.0,WNW,31.1,39.1,N/A,,Clear,290,2013-05-14 21:15:00
4:34 PM,96.1,28.9,9,29.51,10.0,NW,24.2,39.1,N/A,,Clear,310,2013-05-14 21:34:00
4:55 PM,96.1,23.7,7,29.52,10.0,NW,26.5,32.2,N/A,,Clear,310,2013-05-14 21:55:00
5:15 PM,95.2,22.8,7,29.53,10.0,WNW,27.6,38.0,N/A,,Clear,290,2013-05-14 22:15:00
5:34 PM,94.6,20.7,7,29.53,10.0,WNW,32.2,39.1,N/A,,Clear,290,2013-05-14 22:34:00
5:55 PM,93.2,20.8,7,29.54,10.0,WNW,26.5,35.7,N/A,,Clear,290,2013-05-14 22:55:00
6:15 PM,93.0,23.7,8,29.54,10.0,WNW,28.8,34.5,N/A,,Clear,290,2013-05-14 23:15:00
6:34 PM,91.4,23.2,8,29.55,10.0,West,28.8,39.1,N/A,,Clear,280,2013-05-14 23:34:00
6:55 PM,88.9,7.7,5,29.56,10.0,WNW,25.3,34.5,N/A,,Clear,290,2013-05-14 23:55:00
7:14 PM,87.3,13.6,6,29.57,10.0,West,23.0,34.5,N/A,,Clear,280,2013-05-15 00:14:00
7:35 PM,85.3,10.0,6,29.58,10.0,West,24.2,31.1,N/A,,Clear,280,2013-05-15 00:35:00
7:55 PM,83.8,10.9,6,29.59,10.0,West,24.2,29.9,N/A,,Clear,280,2013-05-15 00:55:00
8:14 PM,82.6,12.9,7,29.60,10.0,WNW,19.6,28.8,N/A,,Clear,290,2013-05-15 01:14:00
8:35 PM,80.1,16.7,9,29.61,10.0,WNW,15.0,21.9,N/A,,Clear,290,2013-05-15 01:35:00
8:55 PM,79.0,18.5,10,29.61,10.0,WNW,16.1,27.6,N/A,,Clear,290,2013-05-15 01:55:00
9:15 PM,78.1,21.9,12,29.63,10.0,WNW,16.1,21.9,N/A,,Clear,290,2013-05-15 02:15:00
9:35 PM,76.3,25.0,15,29.64,10.0,WNW,15.0,-,N/A,,Clear,300,2013-05-15 02:35:00
9:54 PM,74.3,28.4,18,29.65,10.0,WNW,11.5,-,N/A,,Clear,300,2013-05-15 02:54:00
10:15 PM,72.9,31.1,21,29.67,10.0,WNW,17.3,23.0,N/A,,Clear,300,2013-05-15 03:15:00
10:34 PM,73.2,34.3,24,29.68,10.0,WNW,19.6,23.0,N/A,,Clear,300,2013-05-15 03:34:00
10:55 PM,71.8,36.7,28,29.69,10.0,WNW,15.0,-,N/A,,Clear,300,2013-05-15 03:55:00
11:15 PM,70.5,38.3,31,29.70,10.0,WNW,18.4,26.5,N/A,,Clear,300,2013-05-15 04:15:00
11:34 PM,68.9,39.4,34,29.71,10.0,WNW,17.3,23.0,N/A,,Clear,300,2013-05-15 04:34:00
11:55 PM,68.2,39.7,35,29.72,10.0,WNW,13.8,21.9,N/A,,Clear,300,2013-05-15 04:55:00